createdAt,value
2022-09-25T00:00:04.381Z,0.00
2022-09-25T00:01:04.451Z,0.00
2022-09-25T00:02:04.467Z,0.00
2022-09-25T00:03:04.484Z,0.00
2022-09-25T00:04:04.346Z,0.00
2022-09-25T00:05:04.338Z,0.00
2022-09-25T00:06:04.319Z,0.00
2022-09-25T00:07:04.296Z,0.00
2022-09-25T00:08:04.294Z,0.00
2022-09-25T00:09:07.821Z,0.00
2022-09-25T00:10:05.300Z,0.00
2022-09-25T00:11:04.257Z,0.00
2022-09-25T00:12:04.246Z,0.00
2022-09-25T00:13:04.234Z,0.00
2022-09-25T00:14:04.337Z,0.00
2022-09-25T00:15:04.232Z,0.00
2022-09-25T00:16:04.245Z,0.00
2022-09-25T00:17:04.242Z,0.00
2022-09-25T00:18:04.179Z,0.00
2022-09-25T00:19:04.192Z,0.00
2022-09-25T00:20:04.157Z,0.00
2022-09-25T00:21:04.160Z,0.00
2022-09-25T00:22:04.139Z,0.00
2022-09-25T00:23:04.146Z,0.00
2022-09-25T00:24:04.352Z,0.00
2022-09-25T00:25:04.106Z,0.00
2022-09-25T00:26:04.097Z,0.00
2022-09-25T00:27:04.088Z,0.00
2022-09-25T00:28:04.070Z,0.00
2022-09-25T00:29:04.112Z,0.00
2022-09-25T00:30:04.064Z,0.00
2022-09-25T00:31:04.118Z,0.00
2022-09-25T00:32:04.057Z,0.00
2022-09-25T00:33:04.014Z,0.00
2022-09-25T00:34:04.069Z,0.00
2022-09-25T00:35:03.993Z,0.00
2022-09-25T00:36:03.987Z,0.00
2022-09-25T00:37:04.007Z,0.00
2022-09-25T00:38:03.998Z,0.00
2022-09-25T00:39:03.965Z,0.00
2022-09-25T00:40:03.940Z,0.00
2022-09-25T00:41:03.936Z,0.00
2022-09-25T00:42:03.948Z,0.00
2022-09-25T00:43:03.902Z,0.00
2022-09-25T00:44:04.077Z,0.00
2022-09-25T00:45:03.912Z,0.00
2022-09-25T00:46:03.918Z,0.00
2022-09-25T00:47:03.883Z,0.00
2022-09-25T00:48:03.858Z,0.00
2022-09-25T00:49:03.868Z,0.00
2022-09-25T00:50:03.907Z,0.00
2022-09-25T00:51:03.885Z,0.00
2022-09-25T00:52:03.815Z,0.00
2022-09-25T00:53:03.813Z,0.00
2022-09-25T00:54:03.902Z,0.00
2022-09-25T00:55:03.781Z,0.00
2022-09-25T00:56:03.774Z,0.00
2022-09-25T00:57:03.770Z,0.00
2022-09-25T00:58:03.752Z,0.00
2022-09-25T00:59:03.777Z,0.00
2022-09-25T01:00:03.796Z,0.00
2022-09-25T01:01:03.820Z,0.00
2022-09-25T01:02:03.816Z,0.00
2022-09-25T01:03:03.713Z,0.00
2022-09-25T01:04:03.751Z,0.00
2022-09-25T01:05:03.693Z,0.00
2022-09-25T01:06:03.659Z,0.00
2022-09-25T01:07:03.661Z,0.00
2022-09-25T01:08:03.640Z,0.00
2022-09-25T01:09:03.685Z,0.00
2022-09-25T01:10:03.641Z,0.00
2022-09-25T01:11:03.598Z,0.00
2022-09-25T01:12:03.599Z,0.00
2022-09-25T01:13:03.590Z,0.00
2022-09-25T01:14:03.682Z,0.00
2022-09-25T01:15:03.587Z,0.00
2022-09-25T01:16:03.547Z,0.00
2022-09-25T01:17:03.624Z,0.00
2022-09-25T01:18:03.527Z,0.00
2022-09-25T01:19:03.567Z,0.00
2022-09-25T01:20:03.502Z,0.00
2022-09-25T01:21:03.499Z,0.00
2022-09-25T01:22:03.498Z,0.00
2022-09-25T01:23:03.491Z,0.00
2022-09-25T01:24:03.502Z,0.00
2022-09-25T01:25:03.481Z,0.00
2022-09-25T01:26:03.453Z,0.00
2022-09-25T01:27:03.445Z,0.00
2022-09-25T01:28:03.422Z,0.00
2022-09-25T01:29:03.406Z,0.00
2022-09-25T01:30:03.431Z,0.00
2022-09-25T01:31:03.509Z,0.00
2022-09-25T01:32:03.389Z,0.00
2022-09-25T01:33:03.362Z,0.00
2022-09-25T01:34:03.414Z,0.00
2022-09-25T01:35:03.386Z,0.00
2022-09-25T01:36:03.327Z,0.00
2022-09-25T01:37:03.319Z,0.00
2022-09-25T01:38:03.313Z,0.00
2022-09-25T01:39:03.303Z,0.00
2022-09-25T01:40:03.309Z,0.00
2022-09-25T01:41:03.280Z,0.00
2022-09-25T01:42:03.279Z,0.00
2022-09-25T01:43:03.292Z,0.00
2022-09-25T01:44:03.407Z,0.00
2022-09-25T01:45:03.268Z,0.00
2022-09-25T01:46:03.305Z,0.00
2022-09-25T01:47:03.230Z,0.00
2022-09-25T01:48:03.204Z,0.00
2022-09-25T01:49:03.210Z,0.00
2022-09-25T01:50:03.211Z,0.00
2022-09-25T01:51:03.192Z,0.00
2022-09-25T01:52:03.152Z,0.00
2022-09-25T01:53:03.146Z,0.00
2022-09-25T01:54:03.145Z,0.00
2022-09-25T01:55:03.157Z,0.00
2022-09-25T01:56:03.113Z,0.00
2022-09-25T01:57:03.102Z,0.00
2022-09-25T01:58:03.096Z,0.00
2022-09-25T01:59:03.090Z,0.00
2022-09-25T02:00:03.102Z,0.00
2022-09-25T02:01:03.138Z,0.00
2022-09-25T02:02:03.090Z,0.00
2022-09-25T02:03:03.079Z,0.00
2022-09-25T02:04:03.048Z,0.00
2022-09-25T02:05:03.041Z,0.00
2022-09-25T02:06:03.042Z,0.00
2022-09-25T02:07:03.018Z,0.00
2022-09-25T02:08:02.996Z,0.00
2022-09-25T02:09:02.995Z,0.00
2022-09-25T02:10:02.992Z,0.00
2022-09-25T02:11:02.954Z,0.00
2022-09-25T02:12:02.960Z,0.00
2022-09-25T02:13:02.964Z,0.00
2022-09-25T02:14:03.031Z,0.00
2022-09-25T02:15:02.927Z,0.00
2022-09-25T02:16:02.918Z,0.00
2022-09-25T02:17:02.992Z,0.00
2022-09-25T02:18:02.870Z,0.00
2022-09-25T02:19:02.865Z,0.00
2022-09-25T02:20:02.870Z,0.00
2022-09-25T02:21:02.884Z,0.00
2022-09-25T02:22:02.844Z,0.00
2022-09-25T02:23:02.850Z,0.00
2022-09-25T02:24:02.819Z,0.00
2022-09-25T02:25:02.810Z,0.00
2022-09-25T02:26:02.849Z,0.00
2022-09-25T02:27:02.786Z,0.00
2022-09-25T02:28:02.763Z,0.00
2022-09-25T02:29:02.818Z,0.00
2022-09-25T02:30:02.744Z,0.00
2022-09-25T02:31:02.819Z,0.00
2022-09-25T02:32:02.728Z,0.00
2022-09-25T02:33:02.712Z,0.00
2022-09-25T02:34:02.713Z,0.00
2022-09-25T02:35:02.704Z,0.00
2022-09-25T02:36:02.720Z,0.00
2022-09-25T02:37:02.675Z,0.00
2022-09-25T02:38:02.659Z,0.00
2022-09-25T02:39:02.751Z,0.00
2022-09-25T02:40:02.642Z,0.00
2022-09-25T02:41:02.653Z,0.00
2022-09-25T02:42:02.614Z,0.00
2022-09-25T02:43:02.677Z,0.00
2022-09-25T02:44:02.601Z,0.00
2022-09-25T02:45:02.586Z,0.00
2022-09-25T02:46:02.688Z,0.00
2022-09-25T02:47:02.563Z,0.00
2022-09-25T02:48:02.572Z,0.00
2022-09-25T02:49:02.554Z,0.00
2022-09-25T02:50:02.541Z,0.00
2022-09-25T02:51:02.538Z,0.00
2022-09-25T02:52:02.525Z,0.00
2022-09-25T02:53:02.535Z,0.00
2022-09-25T02:54:02.486Z,0.00
2022-09-25T02:55:02.582Z,0.00
2022-09-25T02:56:02.563Z,0.00
2022-09-25T02:57:04.141Z,0.00
2022-09-25T02:58:02.441Z,0.00
2022-09-25T02:59:02.431Z,0.00
2022-09-25T03:00:02.455Z,0.00
2022-09-25T03:01:02.492Z,0.00
2022-09-25T03:02:02.565Z,0.00
2022-09-25T03:03:02.490Z,0.00
2022-09-25T03:04:02.374Z,0.00
2022-09-25T03:05:02.383Z,0.00
2022-09-25T03:06:02.355Z,0.00
2022-09-25T03:07:02.368Z,0.00
2022-09-25T03:08:02.330Z,0.00
2022-09-25T03:09:02.341Z,0.00
2022-09-25T03:10:02.338Z,0.00
2022-09-25T03:11:02.329Z,0.00
2022-09-25T03:12:02.325Z,0.00
2022-09-25T03:13:02.280Z,0.00
2022-09-25T03:14:02.267Z,0.00
2022-09-25T03:15:02.297Z,0.00
2022-09-25T03:16:02.308Z,0.00
2022-09-25T03:17:02.268Z,0.00
2022-09-25T03:18:02.228Z,0.00
2022-09-25T03:19:02.238Z,0.00
2022-09-25T03:20:02.206Z,0.00
2022-09-25T03:21:02.204Z,0.00
2022-09-25T03:22:02.284Z,0.00
2022-09-25T03:23:02.182Z,0.00
2022-09-25T03:24:02.199Z,0.00
2022-09-25T03:25:02.168Z,0.00
2022-09-25T03:26:02.142Z,0.00
2022-09-25T03:27:02.191Z,0.00
2022-09-25T03:28:02.117Z,0.00
2022-09-25T03:29:02.128Z,0.00
2022-09-25T03:30:02.092Z,0.00
2022-09-25T03:31:02.198Z,0.00
2022-09-25T03:32:02.103Z,0.00
2022-09-25T03:33:02.075Z,0.00
2022-09-25T03:34:02.063Z,0.00
2022-09-25T03:35:02.071Z,0.00
2022-09-25T03:36:02.052Z,0.00
2022-09-25T03:37:02.041Z,0.00
2022-09-25T03:38:02.005Z,0.00
2022-09-25T03:39:02.001Z,0.00
2022-09-25T03:40:01.989Z,0.00
2022-09-25T03:41:02.129Z,0.00
2022-09-25T03:42:02.000Z,0.00
2022-09-25T03:43:30.932Z,0.00
2022-09-25T03:44:30.895Z,0.00
2022-09-25T03:45:30.888Z,0.00
2022-09-25T03:46:31.009Z,0.00
2022-09-25T03:47:30.863Z,0.00
2022-09-25T03:48:30.854Z,0.00
2022-09-25T03:49:30.844Z,0.00
2022-09-25T03:50:30.831Z,0.00
2022-09-25T03:51:30.845Z,0.00
2022-09-25T03:52:30.809Z,0.00
2022-09-25T03:53:30.800Z,0.00
2022-09-25T03:54:30.789Z,0.00
2022-09-25T03:55:30.785Z,0.00
2022-09-25T03:56:30.788Z,0.00
2022-09-25T03:57:30.773Z,0.00
2022-09-25T03:58:30.750Z,0.00
2022-09-25T03:59:30.754Z,0.00
2022-09-25T04:00:30.719Z,0.00
2022-09-25T04:01:30.762Z,0.00
2022-09-25T04:02:30.778Z,0.00
2022-09-25T04:03:30.699Z,0.00
2022-09-25T04:04:30.682Z,0.00
2022-09-25T04:05:30.668Z,0.00
2022-09-25T04:06:30.689Z,0.00
2022-09-25T04:07:30.646Z,0.00
2022-09-25T04:08:30.644Z,0.00
2022-09-25T04:09:30.621Z,0.00
2022-09-25T04:10:30.618Z,0.00
2022-09-25T04:11:30.630Z,0.00
2022-09-25T04:12:30.596Z,0.00
2022-09-25T04:13:30.582Z,0.00
2022-09-25T04:14:30.574Z,0.00
2022-09-25T04:15:30.579Z,0.00
2022-09-25T04:16:30.594Z,0.00
2022-09-25T04:17:30.539Z,0.00
2022-09-25T04:18:30.530Z,0.00
2022-09-25T04:19:30.523Z,0.00
2022-09-25T04:20:30.508Z,0.00
2022-09-25T04:21:30.521Z,0.00
2022-09-25T04:22:30.507Z,0.00
2022-09-25T04:23:30.478Z,0.00
2022-09-25T04:24:30.468Z,0.00
2022-09-25T04:25:30.452Z,0.00
2022-09-25T04:26:30.441Z,0.00
2022-09-25T04:27:30.457Z,0.00
2022-09-25T04:28:30.418Z,0.00
2022-09-25T04:29:30.410Z,0.00
2022-09-25T04:30:30.398Z,0.00
2022-09-25T04:31:30.505Z,0.00
2022-09-25T04:32:30.402Z,0.00
2022-09-25T04:33:30.370Z,0.00
2022-09-25T04:34:30.358Z,0.00
2022-09-25T04:35:30.345Z,0.00
2022-09-25T04:36:30.337Z,0.00
2022-09-25T04:37:30.348Z,0.00
2022-09-25T04:38:30.314Z,0.00
2022-09-25T04:39:30.302Z,0.00
2022-09-25T04:40:30.378Z,0.00
2022-09-25T04:41:30.284Z,0.00
2022-09-25T04:42:30.290Z,0.00
2022-09-25T04:43:30.282Z,0.00
2022-09-25T04:44:30.259Z,0.00
2022-09-25T04:45:30.244Z,0.00
2022-09-25T04:46:30.297Z,0.00
2022-09-25T04:47:30.253Z,0.00
2022-09-25T04:48:30.229Z,0.00
2022-09-25T04:49:30.196Z,0.00
2022-09-25T04:50:30.232Z,0.00
2022-09-25T04:51:30.176Z,0.00
2022-09-25T04:52:30.174Z,0.00
2022-09-25T04:53:30.178Z,0.00
2022-09-25T04:54:30.141Z,0.00
2022-09-25T04:55:30.130Z,0.00
2022-09-25T04:56:30.118Z,0.00
2022-09-25T04:57:56.736Z,0.00
2022-09-25T04:58:31.121Z,0.00
2022-09-25T04:59:30.085Z,0.00
2022-09-25T05:00:30.070Z,0.00
2022-09-25T05:01:30.187Z,0.00
2022-09-25T05:02:30.258Z,0.00
2022-09-25T05:03:30.172Z,0.00
2022-09-25T05:04:30.047Z,0.00
2022-09-25T05:05:30.022Z,0.00
2022-09-25T05:06:30.005Z,0.00
2022-09-25T05:07:29.997Z,0.00
2022-09-25T05:08:30.008Z,0.00
2022-09-25T05:09:29.991Z,0.00
2022-09-25T05:10:29.966Z,0.00
2022-09-25T05:11:29.957Z,0.00
2022-09-25T05:12:29.943Z,0.00
2022-09-25T05:13:29.972Z,0.00
2022-09-25T05:14:29.918Z,0.00
2022-09-25T05:15:29.912Z,0.00
2022-09-25T05:16:29.957Z,0.00
2022-09-25T05:17:29.893Z,0.00
2022-09-25T05:18:29.877Z,0.00
2022-09-25T05:19:29.988Z,0.00
2022-09-25T05:20:29.852Z,0.00
2022-09-25T05:21:29.839Z,0.00
2022-09-25T05:22:29.834Z,0.00
2022-09-25T05:23:29.823Z,0.00
2022-09-25T05:24:29.829Z,0.00
2022-09-25T05:25:29.800Z,0.00
2022-09-25T05:26:29.787Z,0.00
2022-09-25T05:27:29.779Z,0.00
2022-09-25T05:28:29.775Z,0.00
2022-09-25T05:29:29.778Z,0.00
2022-09-25T05:30:29.758Z,0.00
2022-09-25T05:31:29.803Z,0.00
2022-09-25T05:32:29.719Z,0.00
2022-09-25T05:33:29.721Z,0.00
2022-09-25T05:34:29.717Z,0.00
2022-09-25T05:35:29.733Z,0.00
2022-09-25T05:36:29.684Z,0.00
2022-09-25T05:37:29.671Z,0.00
2022-09-25T05:38:29.659Z,0.00
2022-09-25T05:39:29.647Z,0.00
2022-09-25T05:40:29.743Z,0.00
2022-09-25T05:41:29.622Z,0.00
2022-09-25T05:42:29.617Z,0.00
2022-09-25T05:43:29.607Z,0.00
2022-09-25T05:44:29.592Z,0.00
2022-09-25T05:45:29.600Z,0.00
2022-09-25T05:46:29.623Z,5.62
2022-09-25T05:47:29.565Z,5.62
2022-09-25T05:48:29.553Z,5.62
2022-09-25T05:49:29.538Z,5.62
2022-09-25T05:50:29.545Z,5.62
2022-09-25T05:51:29.534Z,5.62
2022-09-25T05:52:29.503Z,5.62
2022-09-25T05:53:29.493Z,5.62
2022-09-25T05:54:29.477Z,5.62
2022-09-25T05:55:29.493Z,5.62
2022-09-25T05:56:29.484Z,5.62
2022-09-25T05:57:29.475Z,5.62
2022-09-25T05:58:29.442Z,5.62
2022-09-25T05:59:29.428Z,5.62
2022-09-25T06:00:29.451Z,5.62
2022-09-25T06:01:29.485Z,5.62
2022-09-25T06:02:29.414Z,5.62
2022-09-25T06:03:29.387Z,5.62
2022-09-25T06:04:29.375Z,5.62
2022-09-25T06:05:29.361Z,5.62
2022-09-25T06:06:29.373Z,5.62
2022-09-25T06:07:29.367Z,5.62
2022-09-25T06:08:29.327Z,5.62
2022-09-25T06:09:29.325Z,5.62
2022-09-25T06:10:29.309Z,5.62
2022-09-25T06:11:29.314Z,11.25
2022-09-25T06:12:29.285Z,11.25
2022-09-25T06:13:29.274Z,11.25
2022-09-25T06:14:29.273Z,11.25
2022-09-25T06:15:29.256Z,11.25
2022-09-25T06:16:29.339Z,11.25
2022-09-25T06:17:29.236Z,11.25
2022-09-25T06:18:29.225Z,11.25
2022-09-25T06:19:29.210Z,16.88
2022-09-25T06:20:29.202Z,16.88
2022-09-25T06:21:29.212Z,16.88
2022-09-25T06:22:29.180Z,16.88
2022-09-25T06:23:29.185Z,16.88
2022-09-25T06:24:29.158Z,16.88
2022-09-25T06:25:29.147Z,16.88
2022-09-25T06:26:29.159Z,16.88
2022-09-25T06:27:29.123Z,16.88
2022-09-25T06:28:29.115Z,16.88
2022-09-25T06:29:29.100Z,16.88
2022-09-25T06:30:29.093Z,22.50
2022-09-25T06:31:29.218Z,22.50
2022-09-25T06:32:29.072Z,22.50
2022-09-25T06:33:29.058Z,22.50
2022-09-25T06:34:29.067Z,16.88
2022-09-25T06:35:29.031Z,16.88
2022-09-25T06:36:29.045Z,16.88
2022-09-25T06:37:29.017Z,11.25
2022-09-25T06:38:29.014Z,11.25
2022-09-25T06:39:29.008Z,11.25
2022-09-25T06:40:29.123Z,11.25
2022-09-25T06:41:29.003Z,16.88
2022-09-25T06:42:28.957Z,16.88
2022-09-25T06:43:28.963Z,16.88
2022-09-25T06:44:28.960Z,22.50
2022-09-25T06:45:28.939Z,22.50
2022-09-25T06:46:29.039Z,28.12
2022-09-25T06:47:28.906Z,28.12
2022-09-25T06:48:28.899Z,28.12
2022-09-25T06:49:28.897Z,28.12
2022-09-25T06:50:28.876Z,33.75
2022-09-25T06:51:28.897Z,33.75
2022-09-25T06:52:28.854Z,33.75
2022-09-25T06:53:28.849Z,33.75
2022-09-25T06:54:28.829Z,28.12
2022-09-25T06:55:28.922Z,28.12
2022-09-25T06:56:28.838Z,22.50
2022-09-25T06:57:28.797Z,22.50
2022-09-25T06:58:28.783Z,22.50
2022-09-25T06:59:28.775Z,22.50
2022-09-25T07:00:28.770Z,28.12
2022-09-25T07:01:28.820Z,28.12
2022-09-25T07:02:28.867Z,28.12
2022-09-25T07:03:28.735Z,28.12
2022-09-25T07:04:28.741Z,22.50
2022-09-25T07:05:28.710Z,22.50
2022-09-25T07:06:28.722Z,22.50
2022-09-25T07:07:28.685Z,22.50
2022-09-25T07:08:28.684Z,22.50
2022-09-25T07:09:28.667Z,28.12
2022-09-25T07:10:28.661Z,28.12
2022-09-25T07:11:28.685Z,28.12
2022-09-25T07:12:28.635Z,28.12
2022-09-25T07:13:28.627Z,33.75
2022-09-25T07:14:28.641Z,33.75
2022-09-25T07:15:28.600Z,33.75
2022-09-25T07:16:28.732Z,33.75
2022-09-25T07:17:28.583Z,33.75
2022-09-25T07:18:28.575Z,33.75
2022-09-25T07:19:28.556Z,33.75
2022-09-25T07:20:28.549Z,33.75
2022-09-25T07:21:28.551Z,33.75
2022-09-25T07:22:28.532Z,33.75
2022-09-25T07:23:28.535Z,39.38
2022-09-25T07:24:28.506Z,39.38
2022-09-25T07:25:28.494Z,39.38
2022-09-25T07:26:28.496Z,45.00
2022-09-25T07:27:28.491Z,45.00
2022-09-25T07:28:28.483Z,45.00
2022-09-25T07:29:28.453Z,45.00
2022-09-25T07:30:28.452Z,45.00
2022-09-25T07:31:28.512Z,45.00
2022-09-25T07:32:28.448Z,45.00
2022-09-25T07:33:28.410Z,45.00
2022-09-25T07:34:28.426Z,45.00
2022-09-25T07:35:28.404Z,45.00
2022-09-25T07:36:28.377Z,50.62
2022-09-25T07:37:28.400Z,45.00
2022-09-25T07:38:28.386Z,45.00
2022-09-25T07:39:28.345Z,45.00
2022-09-25T07:40:28.412Z,45.00
2022-09-25T07:41:28.322Z,45.00
2022-09-25T07:42:28.312Z,50.62
2022-09-25T07:43:28.314Z,50.62
2022-09-25T07:44:30.254Z,45.00
2022-09-25T07:45:29.276Z,45.00
2022-09-25T07:46:28.381Z,45.00
2022-09-25T07:47:28.257Z,45.00
2022-09-25T07:48:28.247Z,45.00
2022-09-25T07:49:28.257Z,45.00
2022-09-25T07:50:28.223Z,39.38
2022-09-25T07:51:28.210Z,39.38
2022-09-25T07:52:28.200Z,33.75
2022-09-25T07:53:28.188Z,33.75
2022-09-25T07:54:28.200Z,28.12
2022-09-25T07:55:28.170Z,28.12
2022-09-25T07:56:28.157Z,28.12
2022-09-25T07:57:28.151Z,28.12
2022-09-25T07:58:28.141Z,33.75
2022-09-25T07:59:28.202Z,33.75
2022-09-25T08:00:28.136Z,33.75
2022-09-25T08:01:28.181Z,33.75
2022-09-25T08:02:28.205Z,33.75
2022-09-25T08:03:28.084Z,39.38
2022-09-25T08:04:28.073Z,33.75
2022-09-25T08:05:28.086Z,39.38
2022-09-25T08:06:28.056Z,39.38
2022-09-25T08:07:28.046Z,39.38
2022-09-25T08:08:28.035Z,45.00
2022-09-25T08:09:28.039Z,50.62
2022-09-25T08:10:28.008Z,50.62
2022-09-25T08:11:28.000Z,50.62
2022-09-25T08:12:27.994Z,50.62
2022-09-25T08:13:27.973Z,50.62
2022-09-25T08:14:27.981Z,50.62
2022-09-25T08:15:28.013Z,50.62
2022-09-25T08:16:27.973Z,45.00
2022-09-25T08:17:27.931Z,45.00
2022-09-25T08:18:27.917Z,45.00
2022-09-25T08:19:27.941Z,45.00
2022-09-25T08:20:27.898Z,45.00
2022-09-25T08:21:27.889Z,45.00
2022-09-25T08:22:27.896Z,45.00
2022-09-25T08:23:27.869Z,45.00
2022-09-25T08:24:27.857Z,50.62
2022-09-25T08:25:27.860Z,50.62
2022-09-25T08:26:27.830Z,50.62
2022-09-25T08:27:27.818Z,50.62
2022-09-25T08:28:27.821Z,45.00
2022-09-25T08:29:27.798Z,45.00
2022-09-25T08:30:27.812Z,45.00
2022-09-25T08:31:27.933Z,39.38
2022-09-25T08:32:27.787Z,39.38
2022-09-25T08:33:27.751Z,39.38
2022-09-25T08:34:40.508Z,39.38
2022-09-25T08:35:28.756Z,39.38
2022-09-25T08:36:27.750Z,39.38
2022-09-25T08:37:27.771Z,39.38
2022-09-25T08:38:27.697Z,33.75
2022-09-25T08:39:27.694Z,33.75
2022-09-25T08:40:27.760Z,33.75
2022-09-25T08:41:27.687Z,33.75
2022-09-25T08:42:27.680Z,33.75
2022-09-25T08:43:27.653Z,33.75
2022-09-25T08:44:27.639Z,33.75
2022-09-25T08:45:27.647Z,33.75
2022-09-25T08:46:27.709Z,33.75
2022-09-25T08:47:27.620Z,33.75
2022-09-25T08:48:27.601Z,39.38
2022-09-25T08:49:27.580Z,39.38
2022-09-25T08:50:27.571Z,39.38
2022-09-25T08:51:27.584Z,45.00
2022-09-25T08:52:27.553Z,45.00
2022-09-25T08:53:27.538Z,50.62
2022-09-25T08:54:27.524Z,50.62
2022-09-25T08:55:27.513Z,50.62
2022-09-25T08:56:27.500Z,56.25
2022-09-25T08:57:27.521Z,61.88
2022-09-25T08:58:27.486Z,61.88
2022-09-25T08:59:27.465Z,61.88
2022-09-25T09:00:27.468Z,67.50
2022-09-25T09:01:27.489Z,73.12
2022-09-25T09:02:27.512Z,73.12
2022-09-25T09:03:27.471Z,73.12
2022-09-25T09:04:27.415Z,78.75
2022-09-25T09:05:27.400Z,84.38
2022-09-25T09:06:27.396Z,90.00
2022-09-25T09:07:28.312Z,90.00
2022-09-25T09:08:27.395Z,90.00
2022-09-25T09:09:27.366Z,84.38
2022-09-25T09:10:27.362Z,78.75
2022-09-25T09:11:27.338Z,73.12
2022-09-25T09:12:27.332Z,67.50
2022-09-25T09:13:27.333Z,61.88
2022-09-25T09:14:27.307Z,56.25
2022-09-25T09:15:27.390Z,56.25
2022-09-25T09:16:27.288Z,61.88
2022-09-25T09:17:27.276Z,67.50
2022-09-25T09:18:27.284Z,67.50
2022-09-25T09:19:27.378Z,73.12
2022-09-25T09:20:27.245Z,78.75
2022-09-25T09:21:27.234Z,73.12
2022-09-25T09:22:27.226Z,73.12
2022-09-25T09:23:27.229Z,61.88
2022-09-25T09:24:27.226Z,61.88
2022-09-25T09:25:27.186Z,61.88
2022-09-25T09:26:27.183Z,61.88
2022-09-25T09:27:27.169Z,61.88
2022-09-25T09:28:27.155Z,67.50
2022-09-25T09:29:27.169Z,73.12
2022-09-25T09:30:27.141Z,84.38
2022-09-25T09:31:27.185Z,78.75
2022-09-25T09:32:27.119Z,73.12
2022-09-25T09:33:27.104Z,67.50
2022-09-25T09:34:46.509Z,73.12
2022-09-25T09:35:33.513Z,73.12
2022-09-25T09:36:28.080Z,78.75
2022-09-25T09:37:27.060Z,78.75
2022-09-25T09:38:27.053Z,84.38
2022-09-25T09:39:27.038Z,84.38
2022-09-25T09:40:27.128Z,84.38
2022-09-25T09:41:27.021Z,84.38
2022-09-25T09:42:27.008Z,78.75
2022-09-25T09:43:26.991Z,78.75
2022-09-25T09:44:26.983Z,73.12
2022-09-25T09:45:26.984Z,73.12
2022-09-25T09:46:27.027Z,67.50
2022-09-25T09:47:26.955Z,61.88
2022-09-25T09:48:26.944Z,61.88
2022-09-25T09:49:26.929Z,67.50
2022-09-25T09:50:26.943Z,67.50
2022-09-25T09:51:26.923Z,73.12
2022-09-25T09:52:26.899Z,84.38
2022-09-25T09:53:26.887Z,84.38
2022-09-25T09:54:26.878Z,84.38
2022-09-25T09:55:26.884Z,78.75
2022-09-25T09:56:26.853Z,73.12
2022-09-25T09:57:26.844Z,73.12
2022-09-25T09:58:26.835Z,73.12
2022-09-25T09:59:26.829Z,67.50
2022-09-25T10:00:26.834Z,67.50
2022-09-25T10:01:40.797Z,73.12
2022-09-25T10:02:27.911Z,67.50
2022-09-25T10:03:26.908Z,61.88
2022-09-25T10:04:26.764Z,61.88
2022-09-25T10:05:26.775Z,56.25
2022-09-25T10:06:26.740Z,56.25
2022-09-25T10:07:26.748Z,56.25
2022-09-25T10:08:26.722Z,56.25
2022-09-25T10:09:26.709Z,56.25
2022-09-25T10:10:26.723Z,56.25
2022-09-25T10:11:26.686Z,56.25
2022-09-25T10:12:26.683Z,56.25
2022-09-25T10:13:26.689Z,56.25
2022-09-25T10:14:26.659Z,50.62
2022-09-25T10:15:26.779Z,56.25
2022-09-25T10:16:26.643Z,61.88
2022-09-25T10:17:26.625Z,67.50
2022-09-25T10:18:26.615Z,73.12
2022-09-25T10:19:26.606Z,78.75
2022-09-25T10:20:26.664Z,78.75
2022-09-25T10:21:26.598Z,73.12
2022-09-25T10:22:26.567Z,67.50
2022-09-25T10:23:26.578Z,67.50
2022-09-25T10:24:26.551Z,67.50
2022-09-25T10:25:26.536Z,67.50
2022-09-25T10:26:26.551Z,73.12
2022-09-25T10:27:26.518Z,84.38
2022-09-25T10:28:26.510Z,90.00
2022-09-25T10:29:26.498Z,95.62
2022-09-25T10:30:26.868Z,95.62
2022-09-25T10:31:26.587Z,90.00
2022-09-25T10:32:26.463Z,90.00
2022-09-25T10:33:26.454Z,90.00
2022-09-25T10:34:26.444Z,90.00
2022-09-25T10:35:26.425Z,90.00
2022-09-25T10:36:26.435Z,90.00
2022-09-25T10:37:26.410Z,95.62
2022-09-25T10:38:26.396Z,95.62
2022-09-25T10:39:43.662Z,101.25
2022-09-25T10:40:27.586Z,90.00
2022-09-25T10:41:26.392Z,78.75
2022-09-25T10:42:26.355Z,78.75
2022-09-25T10:43:26.361Z,78.75
2022-09-25T10:44:26.333Z,78.75
2022-09-25T10:45:26.336Z,84.38
2022-09-25T10:46:26.348Z,90.00
2022-09-25T10:47:26.299Z,90.00
2022-09-25T10:48:26.290Z,106.88
2022-09-25T10:49:26.280Z,118.12
2022-09-25T10:50:26.289Z,140.62
2022-09-25T10:51:26.284Z,118.12
2022-09-25T10:52:26.243Z,106.88
2022-09-25T10:53:26.233Z,106.88
2022-09-25T10:54:26.220Z,106.88
2022-09-25T10:55:26.318Z,146.25
2022-09-25T10:56:26.199Z,180.00
2022-09-25T10:57:26.209Z,174.38
2022-09-25T10:58:26.188Z,140.62
2022-09-25T10:59:26.172Z,123.75
2022-09-25T11:00:26.220Z,123.75
2022-09-25T11:01:26.165Z,135.00
2022-09-25T11:02:26.339Z,129.38
2022-09-25T11:03:26.133Z,140.62
2022-09-25T11:04:26.116Z,135.00
2022-09-25T11:05:26.104Z,140.62
2022-09-25T11:06:26.090Z,135.00
2022-09-25T11:07:26.105Z,135.00
2022-09-25T11:08:26.073Z,140.62
2022-09-25T11:09:26.065Z,140.62
2022-09-25T11:10:26.049Z,140.62
2022-09-25T11:11:26.064Z,140.62
2022-09-25T11:12:26.054Z,135.00
2022-09-25T11:13:26.022Z,135.00
2022-09-25T11:14:26.007Z,135.00
2022-09-25T11:15:26.001Z,129.38
2022-09-25T11:16:26.052Z,123.75
2022-09-25T11:17:26.005Z,112.50
2022-09-25T11:18:25.965Z,112.50
2022-09-25T11:19:25.957Z,101.25
2022-09-25T11:20:26.035Z,95.62
2022-09-25T11:21:25.944Z,95.62
2022-09-25T11:22:25.927Z,95.62
2022-09-25T11:23:25.929Z,95.62
2022-09-25T11:24:25.902Z,95.62
2022-09-25T11:25:25.913Z,90.00
2022-09-25T11:26:25.877Z,90.00
2022-09-25T11:27:25.887Z,90.00
2022-09-25T11:28:25.880Z,84.38
2022-09-25T11:29:25.849Z,84.38
2022-09-25T11:30:25.917Z,78.75
2022-09-25T11:31:25.833Z,78.75
2022-09-25T11:32:25.817Z,73.12
2022-09-25T11:33:25.807Z,73.12
2022-09-25T11:34:25.793Z,67.50
2022-09-25T11:35:25.847Z,67.50
2022-09-25T11:36:25.774Z,67.50
2022-09-25T11:37:25.760Z,67.50
2022-09-25T11:38:25.758Z,73.12
2022-09-25T11:39:25.744Z,78.75
2022-09-25T11:40:25.937Z,84.38
2022-09-25T11:41:25.746Z,84.38
2022-09-25T11:42:25.712Z,90.00
2022-09-25T11:43:25.719Z,90.00
2022-09-25T11:44:25.687Z,90.00
2022-09-25T11:45:25.703Z,90.00
2022-09-25T11:46:25.725Z,90.00
2022-09-25T11:47:25.656Z,95.62
2022-09-25T11:48:25.645Z,95.62
2022-09-25T11:49:25.643Z,95.62
2022-09-25T11:50:25.642Z,95.62
2022-09-25T11:51:25.614Z,101.25
2022-09-25T11:52:25.599Z,95.62
2022-09-25T11:53:25.614Z,95.62
2022-09-25T11:54:33.677Z,90.00
2022-09-25T11:55:26.566Z,101.25
2022-09-25T11:56:25.558Z,95.62
2022-09-25T11:57:25.551Z,90.00
2022-09-25T11:58:25.559Z,90.00
2022-09-25T11:59:25.544Z,90.00
2022-09-25T12:00:25.552Z,90.00
2022-09-25T12:01:25.531Z,84.38
2022-09-25T12:02:25.506Z,73.12
2022-09-25T12:03:25.503Z,67.50
2022-09-25T12:04:25.471Z,61.88
2022-09-25T12:05:25.493Z,61.88
2022-09-25T12:06:25.452Z,61.88
2022-09-25T12:07:25.437Z,61.88
2022-09-25T12:08:25.427Z,61.88
2022-09-25T12:09:25.416Z,61.88
2022-09-25T12:10:25.404Z,67.50
2022-09-25T12:11:25.416Z,67.50
2022-09-25T12:12:25.382Z,73.12
2022-09-25T12:13:25.368Z,73.12
2022-09-25T12:14:25.368Z,73.12
2022-09-25T12:15:25.392Z,73.12
2022-09-25T12:16:25.376Z,73.12
2022-09-25T12:17:25.333Z,84.38
2022-09-25T12:18:25.315Z,84.38
2022-09-25T12:19:25.300Z,84.38
2022-09-25T12:20:25.320Z,90.00
2022-09-25T12:21:25.280Z,90.00
2022-09-25T12:22:25.269Z,84.38
2022-09-25T12:23:25.260Z,90.00
2022-09-25T12:24:28.111Z,90.00
2022-09-25T12:25:26.279Z,101.25
2022-09-25T12:26:25.230Z,101.25
2022-09-25T12:27:25.237Z,101.25
2022-09-25T12:28:25.203Z,101.25
2022-09-25T12:29:25.198Z,95.62
2022-09-25T12:30:25.182Z,95.62
2022-09-25T12:31:25.364Z,90.00
2022-09-25T12:32:25.164Z,90.00
2022-09-25T12:33:25.155Z,90.00
2022-09-25T12:34:25.147Z,90.00
2022-09-25T12:35:25.130Z,95.62
2022-09-25T12:36:25.155Z,95.62
2022-09-25T12:37:27.486Z,95.62
2022-09-25T12:38:25.099Z,112.50
2022-09-25T12:39:25.090Z,123.75
2022-09-25T12:40:25.206Z,106.88
2022-09-25T12:41:25.075Z,106.88
2022-09-25T12:42:25.087Z,196.88
2022-09-25T12:43:25.060Z,208.12
2022-09-25T12:44:27.405Z,315.00
2022-09-25T12:45:25.044Z,759.38
2022-09-25T12:46:25.047Z,607.50
2022-09-25T12:47:25.126Z,523.12
2022-09-25T12:48:24.989Z,382.50
2022-09-25T12:49:24.977Z,343.12
2022-09-25T12:50:24.968Z,219.38
2022-09-25T12:51:24.958Z,196.88
2022-09-25T12:52:24.987Z,253.12
2022-09-25T12:53:24.934Z,146.25
2022-09-25T12:54:24.929Z,286.88
2022-09-25T12:55:24.916Z,253.12
2022-09-25T12:56:24.906Z,185.62
2022-09-25T12:57:24.896Z,163.12
2022-09-25T12:58:24.904Z,174.38
2022-09-25T12:59:24.910Z,253.12
2022-09-25T13:00:24.862Z,343.12
2022-09-25T13:01:24.968Z,168.75
2022-09-25T13:02:24.871Z,135.00